This is the latest recevied weather packets stored in our database for station/object OE-11061. If no packets are shown the sender has not sent any weather packets the latest 10 day(s).
| Time | Temp. | Humidity | Pressure | Rain* | Wind** | Luminosity | Snow |
|---|---|---|---|---|---|---|---|
| 1788595895 | 15° C | 93% | 1023.2 hPa | 0.25 mm | - | 164 W/m² | - |
| 1788595522 | 14.44° C | 94% | 1023.2 hPa | 1.02 mm | - | 119 W/m² | - |
| 1788594921 | 14.44° C | 93% | 1023.1 hPa | 1.27 mm | - | 67 W/m² | - |
| 1788594094 | 14.44° C | 92% | 1023.3 hPa | 1.78 mm | - | 82 W/m² | - |
| 1788593722 | 14.44° C | 93% | 1023.1 hPa | 2.29 mm | - | 97 W/m² | - |
| 1788593121 | 13.89° C | 91% | 1023 hPa | 2.29 mm | - | 90 W/m² | - |
| 1788592294 | 14.44° C | 94% | 1023 hPa | 3.05 mm | - | 52 W/m² | - |
| 1788591921 | 13.89° C | 93% | 1022.7 hPa | 4.32 mm | - | 22 W/m² | - |
| 1788591322 | 13.89° C | 93% | 1022.8 hPa | 4.57 mm | - | 22 W/m² | - |
| 1788590494 | 13.89° C | 93% | 1022.8 hPa | 4.57 mm | - | 22 W/m² | - |
| 1788590122 | 14.44° C | 92% | 1023.3 hPa | 3.81 mm | - | 7 W/m² | - |
| 1788589522 | 14.44° C | 90% | 1023 hPa | 3.3 mm | - | 7 W/m² | - |
| 1788588694 | 14.44° C | 90% | 1023.2 hPa | 3.3 mm | - | 7 W/m² | - |
| 1788588322 | 14.44° C | 88% | 1023.1 hPa | 2.54 mm | - | 7 W/m² | - |
| 1788587722 | 15° C | 85% | 1022.8 hPa | 1.27 mm | - | 7 W/m² | - |
| 1788586522 | 17.22° C | 67% | 1021.2 hPa | 0 mm | - | 7 W/m² | - |
| 1788559895 | 20.56° C | 59% | 1014.7 hPa | 0 mm | - | 0 W/m² | - |
| 1788558922 | 19.44° C | 63% | 1014.8 hPa | 0 mm | - | 0 W/m² | - |
| 1788557722 | 20.56° C | 60% | 1014.7 hPa | 0 mm | - | 0 W/m² | - |
| 1788556296 | 20.56° C | 58% | 1014.6 hPa | 0 mm | - | 0 W/m² | - |
| 1788555322 | 21.11° C | 56% | 1014.4 hPa | 0 mm | - | 0 W/m² | - |
| 1788554496 | 21.11° C | 56% | 1014.4 hPa | 0 mm | - | 0 W/m² | - |
| 1788553522 | 21.11° C | 58% | 1014.4 hPa | 0 mm | - | 0 W/m² | - |
| 1788552322 | 22.22° C | 54% | 1014.3 hPa | 0 mm | - | 0 W/m² | - |
| 1788551724 | 22.78° C | 52% | 1014.1 hPa | 0 mm | - | 0 W/m² | - |
* Rain latest hour (hover to see other rain measurements)
** Current wind speed in m/s (hover to see current wind gust speed)